Time;durP1;ratioP1;P1;durP2;ratioP2;P2;SDS_P1;SDS_P2;PMS_P1;PMS_P2;Temp;Humidity;BMP_temperature;BMP_pressure;BME280_temperature;BME280_humidity;BME280_pressure;Samples;Min_cycle;Max_cycle;Signal;HPM_P1;HPM_P2
2022/04/12 00:01:23;;;;;;;2.00;1.50;;;;;;;;;;5020971;28;20046;-71
2022/04/12 00:03:49;;;;;;;1.85;1.40;;;;;;;;;;5014190;28;20060;-72
2022/04/12 00:06:15;;;;;;;1.92;1.40;;;;;;;;;;5014453;28;20050;-71
2022/04/12 00:08:41;;;;;;;2.13;1.40;;;;;;;;;;5034159;28;20099;-72
2022/04/12 00:11:07;;;;;;;3.08;1.50;;;;;;;;;;5023111;28;20115;-72
2022/04/12 00:13:33;;;;;;;1.75;1.60;;;;;;;;;;5019002;28;20088;-72
2022/04/12 00:16:00;;;;;;;1.85;1.35;;;;;;;;;;5029775;28;20049;-72
2022/04/12 00:21:24;;;;;;;1.45;1.20;;;;;;;;;;4999873;28;20121;-72
2022/04/12 00:23:50;;;;;;;2.28;1.60;;;;;;;;;;5033786;28;20128;-72
2022/04/12 00:26:16;;;;;;;2.20;1.65;;;;;;;;;;5033332;28;20041;-71
2022/04/12 00:28:42;;;;;;;1.88;1.60;;;;;;;;;;5033458;28;20546;-71
2022/04/12 00:31:08;;;;;;;2.35;1.58;;;;;;;;;;5025872;28;20504;-71
2022/04/12 00:33:34;;;;;;;1.88;1.55;;;;;;;;;;5013959;28;20045;-72
2022/04/12 00:36:02;;;;;;;2.10;1.40;;;;;;;;;;5016123;28;20180;-71
2022/04/12 00:38:33;;;;;;;1.63;1.42;;;;;;;;;;5033288;28;20045;-72
2022/04/12 00:41:00;;;;;;;1.50;1.40;;;;;;;;;;5012548;28;20081;-72
2022/04/12 00:43:27;;;;;;;1.75;1.50;;;;;;;;;;5016934;28;20038;-72
2022/04/12 00:45:53;;;;;;;1.73;1.40;;;;;;;;;;5030159;28;20073;-72
2022/04/12 00:48:19;;;;;;;1.65;1.50;;;;;;;;;;5013619;28;20060;-71
2022/04/12 00:50:46;;;;;;;2.92;1.65;;;;;;;;;;5015848;28;20402;-72
2022/04/12 00:53:13;;;;;;;3.20;1.73;;;;;;;;;;5033199;28;20045;-72
2022/04/12 00:55:39;;;;;;;1.67;1.50;;;;;;;;;;5033041;28;20077;-72
2022/04/12 00:58:07;;;;;;;1.98;1.50;;;;;;;;;;5033562;28;20053;-72
2022/04/12 01:00:34;;;;;;;1.50;1.40;;;;;;;;;;5032462;28;20092;-72
2022/04/12 01:03:01;;;;;;;1.60;1.50;;;;;;;;;;5013588;28;20138;-72
2022/04/12 01:05:27;;;;;;;2.08;1.30;;;;;;;;;;5015129;28;20473;-72
2022/04/12 01:07:53;;;;;;;2.40;1.50;;;;;;;;;;5033450;28;20377;-72
2022/04/12 01:10:19;;;;;;;2.22;1.55;;;;;;;;;;5032892;28;20042;-71
2022/04/12 01:12:47;;;;;;;1.58;1.40;;;;;;;;;;5011828;28;20137;-72
2022/04/12 01:15:19;;;;;;;2.63;1.52;;;;;;;;;;5010577;28;20488;-72
2022/04/12 01:17:46;;;;;;;2.30;1.55;;;;;;;;;;5032869;28;20049;-72
2022/04/12 01:20:13;;;;;;;1.75;1.40;;;;;;;;;;5031913;28;20181;-72
2022/04/12 01:22:55;;;;;;;1.60;1.50;;;;;;;;;;5014945;28;20504;-72
2022/04/12 01:25:21;;;;;;;1.70;1.52;;;;;;;;;;5013157;28;20571;-72
2022/04/12 01:27:48;;;;;;;1.50;1.40;;;;;;;;;;5021287;28;20051;-72
2022/04/12 01:30:14;;;;;;;1.58;1.48;;;;;;;;;;5032767;28;20067;-72
2022/04/12 01:32:40;;;;;;;2.05;1.60;;;;;;;;;;5015498;28;20493;-72
2022/04/12 01:35:06;;;;;;;1.52;1.40;;;;;;;;;;5016644;28;20045;-72
2022/04/12 01:37:32;;;;;;;1.52;1.42;;;;;;;;;;5032514;28;20073;-72
2022/04/12 01:39:58;;;;;;;3.05;1.70;;;;;;;;;;5031097;28;20045;-72
2022/04/12 01:42:24;;;;;;;1.77;1.40;;;;;;;;;;5017875;28;20085;-72
2022/04/12 01:44:50;;;;;;;1.90;1.40;;;;;;;;;;5023552;28;20048;-72
2022/04/12 01:47:17;;;;;;;2.33;1.60;;;;;;;;;;5030915;28;20045;-72
2022/04/12 01:49:43;;;;;;;1.90;1.45;;;;;;;;;;5031447;28;20054;-71
2022/04/12 01:52:13;;;;;;;2.53;1.80;;;;;;;;;;5020855;28;20046;-72
2022/04/12 01:54:39;;;;;;;1.48;1.38;;;;;;;;;;5013057;28;20061;-72
2022/04/12 01:57:05;;;;;;;1.90;1.40;;;;;;;;;;5011360;28;20527;-71
2022/04/12 01:59:31;;;;;;;1.88;1.50;;;;;;;;;;5013753;28;20492;-72
2022/04/12 02:01:57;;;;;;;2.33;1.50;;;;;;;;;;5014527;28;20379;-72
2022/04/12 02:04:23;;;;;;;1.60;1.40;;;;;;;;;;5012796;28;20133;-72
2022/04/12 02:06:49;;;;;;;1.98;1.45;;;;;;;;;;5012976;28;20509;-72
2022/04/12 02:09:15;;;;;;;2.42;1.70;;;;;;;;;;5013480;28;20077;-72
2022/04/12 02:11:41;;;;;;;2.05;1.50;;;;;;;;;;5028657;28;20473;-72
2022/04/12 02:14:08;;;;;;;3.30;1.50;;;;;;;;;;5022627;28;20129;-72
2022/04/12 02:16:34;;;;;;;2.00;1.42;;;;;;;;;;5024929;28;20557;-72
2022/04/12 02:19:00;;;;;;;1.70;1.60;;;;;;;;;;5012851;28;20088;-72
2022/04/12 02:21:26;;;;;;;1.58;1.48;;;;;;;;;;5030651;28;20053;-71
2022/04/12 02:23:52;;;;;;;1.83;1.50;;;;;;;;;;5032377;28;20052;-72
2022/04/12 02:26:18;;;;;;;2.15;1.50;;;;;;;;;;5032422;28;20041;-72
2022/04/12 02:28:44;;;;;;;1.60;1.42;;;;;;;;;;5032472;28;20054;-71
2022/04/12 02:31:10;;;;;;;2.15;1.63;;;;;;;;;;5021788;28;20040;-72
2022/04/12 02:33:36;;;;;;;2.13;1.60;;;;;;;;;;5032824;28;20499;-72
2022/04/12 02:36:02;;;;;;;1.92;1.70;;;;;;;;;;5036063;28;20041;-71
2022/04/12 02:38:28;;;;;;;1.60;1.50;;;;;;;;;;5035827;28;20153;-70
2022/04/12 02:40:54;;;;;;;2.63;1.65;;;;;;;;;;5021842;28;20114;-70
2022/04/12 02:43:20;;;;;;;2.17;1.58;;;;;;;;;;5029127;28;20382;-71
2022/04/12 02:45:47;;;;;;;2.00;1.70;;;;;;;;;;5020338;28;20037;-71
2022/04/12 02:48:13;;;;;;;2.13;1.60;;;;;;;;;;5035123;28;20081;-71
2022/04/12 02:50:40;;;;;;;2.05;1.52;;;;;;;;;;5024098;28;20049;-71
2022/04/12 02:53:06;;;;;;;1.98;1.55;;;;;;;;;;5029378;28;20069;-71
2022/04/12 02:55:32;;;;;;;1.63;1.50;;;;;;;;;;5035538;28;20044;-71
2022/04/12 02:57:58;;;;;;;2.42;1.52;;;;;;;;;;5026788;28;20061;-71
2022/04/12 03:00:24;;;;;;;2.30;1.60;;;;;;;;;;5022489;28;20041;-71
2022/04/12 03:02:50;;;;;;;1.85;1.40;;;;;;;;;;5015427;28;20044;-70
2022/04/12 03:05:16;;;;;;;1.60;1.50;;;;;;;;;;5027807;28;20041;-70
2022/04/12 03:07:42;;;;;;;1.90;1.60;;;;;;;;;;5035328;28;20148;-71
2022/04/12 03:10:08;;;;;;;1.83;1.63;;;;;;;;;;5032633;28;20424;-71
2022/04/12 03:12:34;;;;;;;1.75;1.50;;;;;;;;;;5035171;28;20052;-71
2022/04/12 03:15:02;;;;;;;2.05;1.60;;;;;;;;;;5017812;28;20050;-71
2022/04/12 03:17:28;;;;;;;1.60;1.50;;;;;;;;;;5015285;28;20054;-71
2022/04/12 03:19:54;;;;;;;1.80;1.50;;;;;;;;;;5019293;28;20037;-71
2022/04/12 03:22:20;;;;;;;1.77;1.48;;;;;;;;;;5034805;28;20045;-71
2022/04/12 03:24:46;;;;;;;2.08;1.48;;;;;;;;;;5034957;28;20045;-71
2022/04/12 03:27:12;;;;;;;2.38;1.70;;;;;;;;;;5032630;28;20120;-71
2022/04/12 03:29:38;;;;;;;2.50;1.50;;;;;;;;;;5016437;28;20054;-71
2022/04/12 03:32:04;;;;;;;2.17;1.58;;;;;;;;;;5034343;28;20048;-71
2022/04/12 03:34:31;;;;;;;1.48;1.38;;;;;;;;;;5034344;28;20481;-71
2022/04/12 03:36:57;;;;;;;2.47;1.70;;;;;;;;;;5034759;28;20497;-71
2022/04/12 03:39:25;;;;;;;1.60;1.50;;;;;;;;;;5023273;28;20042;-71
2022/04/12 03:41:52;;;;;;;1.77;1.60;;;;;;;;;;5034904;28;20057;-71
2022/04/12 03:44:18;;;;;;;2.28;1.50;;;;;;;;;;5024725;28;20088;-71
2022/04/12 03:46:44;;;;;;;2.13;1.50;;;;;;;;;;5016338;28;20041;-71
2022/04/12 03:49:13;;;;;;;2.35;1.60;;;;;;;;;;5023461;28;20133;-71
2022/04/12 03:51:39;;;;;;;1.63;1.52;;;;;;;;;;5014678;28;20041;-71
2022/04/12 03:54:05;;;;;;;1.50;1.40;;;;;;;;;;5014679;28;20072;-71
2022/04/12 03:56:31;;;;;;;2.00;1.50;;;;;;;;;;5014224;28;20062;-71
2022/04/12 03:59:00;;;;;;;1.90;1.70;;;;;;;;;;5024580;28;20059;-70
2022/04/12 04:01:28;;;;;;;1.55;1.45;;;;;;;;;;5032362;28;20042;-71
2022/04/12 04:03:58;;;;;;;2.40;1.50;;;;;;;;;;5034389;28;20073;-71
2022/04/12 04:06:25;;;;;;;1.75;1.58;;;;;;;;;;5034163;28;20127;-71
2022/04/12 04:08:51;;;;;;;1.80;1.50;;;;;;;;;;5025484;28;20041;-71
2022/04/12 04:11:17;;;;;;;2.05;1.60;;;;;;;;;;5033808;28;20045;-71
2022/04/12 04:13:43;;;;;;;1.50;1.40;;;;;;;;;;5027944;28;20045;-71
2022/04/12 04:16:09;;;;;;;2.17;1.60;;;;;;;;;;5031780;28;20531;-71
2022/04/12 04:18:35;;;;;;;2.08;1.70;;;;;;;;;;5012516;28;20045;-71
2022/04/12 04:21:01;;;;;;;1.60;1.50;;;;;;;;;;5014087;28;20049;-70
2022/04/12 04:23:28;;;;;;;2.63;1.90;;;;;;;;;;5013876;28;20386;-71
2022/04/12 04:25:54;;;;;;;1.80;1.70;;;;;;;;;;5013916;28;20068;-71
2022/04/12 04:28:23;;;;;;;2.00;1.67;;;;;;;;;;5015560;28;20046;-71
2022/04/12 04:30:49;;;;;;;2.15;1.83;;;;;;;;;;5017009;28;20038;-71
2022/04/12 04:33:19;;;;;;;2.08;1.70;;;;;;;;;;5014037;28;20072;-71
2022/04/12 04:35:45;;;;;;;1.92;1.67;;;;;;;;;;5024790;28;20037;-71
2022/04/12 04:38:11;;;;;;;2.38;1.75;;;;;;;;;;5024382;28;20050;-71
2022/04/12 04:40:37;;;;;;;1.92;1.42;;;;;;;;;;5025006;28;20444;-70
2022/04/12 04:43:03;;;;;;;2.13;1.50;;;;;;;;;;5013698;28;20571;-70
2022/04/12 04:45:30;;;;;;;1.75;1.45;;;;;;;;;;5012028;28;20050;-70
2022/04/12 04:47:57;;;;;;;1.67;1.58;;;;;;;;;;5013699;28;20490;-71
2022/04/12 04:50:24;;;;;;;2.03;1.50;;;;;;;;;;5023278;28;20511;-71
2022/04/12 04:52:50;;;;;;;1.60;1.50;;;;;;;;;;5033333;28;20041;-70
2022/04/12 04:55:17;;;;;;;2.88;1.58;;;;;;;;;;5033171;28;20064;-71
2022/04/12 04:57:43;;;;;;;2.67;1.50;;;;;;;;;;5021599;28;20053;-70
2022/04/12 05:00:15;;;;;;;1.52;1.30;;;;;;;;;;5028774;28;20132;-70
2022/04/12 05:02:44;;;;;;;1.77;1.60;;;;;;;;;;5033697;28;20073;-71
2022/04/12 05:05:10;;;;;;;1.83;1.30;;;;;;;;;;5014078;28;20129;-71
2022/04/12 05:07:37;;;;;;;2.15;1.50;;;;;;;;;;5033008;28;20468;-70
2022/04/12 05:10:03;;;;;;;1.40;1.30;;;;;;;;;;5027618;28;20045;-71
2022/04/12 05:12:29;;;;;;;2.80;1.30;;;;;;;;;;5033349;28;20041;-71
2022/04/12 05:14:55;;;;;;;1.48;1.38;;;;;;;;;;5016488;28;20378;-70
2022/04/12 05:17:25;;;;;;;1.40;1.30;;;;;;;;;;5013481;28;20034;-71
2022/04/12 05:19:51;;;;;;;1.92;1.50;;;;;;;;;;5015765;28;20080;-71
2022/04/12 05:22:17;;;;;;;1.52;1.42;;;;;;;;;;5016338;28;20095;-71
2022/04/12 05:24:44;;;;;;;2.38;1.63;;;;;;;;;;5032605;28;20389;-71
2022/04/12 05:27:10;;;;;;;1.88;1.40;;;;;;;;;;5028585;28;20037;-71
2022/04/12 05:29:36;;;;;;;1.92;1.48;;;;;;;;;;5011358;28;20096;-71
2022/04/12 05:32:03;;;;;;;1.50;1.40;;;;;;;;;;5013111;28;20095;-71
2022/04/12 05:34:28;;;;;;;1.70;1.40;;;;;;;;;;5021705;28;20038;-71
2022/04/12 05:36:54;;;;;;;1.60;1.50;;;;;;;;;;5016440;28;20054;-71
2022/04/12 05:39:20;;;;;;;1.63;1.40;;;;;;;;;;5012942;28;20385;-71
2022/04/12 05:41:46;;;;;;;1.48;1.38;;;;;;;;;;5013049;28;20127;-71
2022/04/12 05:44:12;;;;;;;1.50;1.40;;;;;;;;;;5022500;28;20046;-71
2022/04/12 05:46:38;;;;;;;2.22;1.30;;;;;;;;;;5032799;28;20045;-71
2022/04/12 05:49:04;;;;;;;1.58;1.40;;;;;;;;;;5017992;28;20045;-71
2022/04/12 05:51:30;;;;;;;2.22;1.55;;;;;;;;;;5032602;28;20473;-71
2022/04/12 05:53:56;;;;;;;1.75;1.40;;;;;;;;;;5015168;28;20055;-71
2022/04/12 05:56:22;;;;;;;1.63;1.48;;;;;;;;;;5030795;28;20128;-71
2022/04/12 05:58:48;;;;;;;1.63;1.42;;;;;;;;;;5012823;28;20053;-71
2022/04/12 06:01:15;;;;;;;1.65;1.40;;;;;;;;;;5012994;28;20042;-71
2022/04/12 06:03:41;;;;;;;1.40;1.30;;;;;;;;;;5020245;28;20046;-70
2022/04/12 06:06:07;;;;;;;2.10;1.60;;;;;;;;;;5030251;28;20072;-71
2022/04/12 06:08:34;;;;;;;1.85;1.60;;;;;;;;;;5014859;28;20104;-70
2022/04/12 06:11:00;;;;;;;2.75;1.40;;;;;;;;;;5016957;28;20045;-71
2022/04/12 06:13:26;;;;;;;7.00;1.77;;;;;;;;;;5032594;28;20504;-69
2022/04/12 06:15:52;;;;;;;3.55;1.70;;;;;;;;;;5016359;28;20050;-71
2022/04/12 06:18:18;;;;;;;1.73;1.50;;;;;;;;;;5035740;28;20492;-72
2022/04/12 06:20:44;;;;;;;1.80;1.55;;;;;;;;;;5036140;28;20523;-71
2022/04/12 06:23:10;;;;;;;2.10;1.55;;;;;;;;;;5035840;28;20045;-71
2022/04/12 06:25:36;;;;;;;2.80;1.75;;;;;;;;;;5015943;28;20125;-69
2022/04/12 06:28:02;;;;;;;2.58;1.70;;;;;;;;;;5014407;28;20497;-73
2022/04/12 06:30:32;;;;;;;3.42;2.05;;;;;;;;;;5034189;28;20053;-72
2022/04/12 06:32:58;;;;;;;2.75;1.60;;;;;;;;;;5033923;28;20042;-69
2022/04/12 06:35:24;;;;;;;2.45;1.60;;;;;;;;;;5023717;28;20038;-69
2022/04/12 06:37:56;;;;;;;3.13;1.58;;;;;;;;;;5021297;28;20133;-70
2022/04/12 06:40:22;;;;;;;2.30;1.70;;;;;;;;;;4998549;28;20061;-71
2022/04/12 06:42:49;;;;;;;3.47;1.42;;;;;;;;;;5035688;28;20045;-70
2022/04/12 06:45:15;;;;;;;3.17;1.58;;;;;;;;;;5035469;28;20041;-71
2022/04/12 06:47:42;;;;;;;1.80;1.50;;;;;;;;;;5022406;28;20145;-70
2022/04/12 06:50:08;;;;;;;1.88;1.40;;;;;;;;;;5015610;28;20050;-72
2022/04/12 06:52:34;;;;;;;1.77;1.50;;;;;;;;;;5016045;28;20089;-70
2022/04/12 06:55:01;;;;;;;4.20;1.67;;;;;;;;;;5034707;28;20420;-72
2022/04/12 06:57:30;;;;;;;2.42;1.50;;;;;;;;;;5022735;28;20061;-71
2022/04/12 06:59:56;;;;;;;2.08;1.52;;;;;;;;;;5015775;28;20054;-70
2022/04/12 07:02:22;;;;;;;2.78;1.60;;;;;;;;;;5015322;28;20049;-68
2022/04/12 07:04:48;;;;;;;4.63;1.70;;;;;;;;;;5030747;28;20496;-71
2022/04/12 07:07:14;;;;;;;2.20;1.70;;;;;;;;;;5023496;28;20049;-68
2022/04/12 07:09:40;;;;;;;1.50;1.40;;;;;;;;;;5016573;28;20049;-69
2022/04/12 07:12:07;;;;;;;2.95;1.60;;;;;;;;;;5017596;28;20049;-73
2022/04/12 07:14:33;;;;;;;2.55;1.60;;;;;;;;;;5018953;28;20049;-74
2022/04/12 07:17:03;;;;;;;3.25;1.73;;;;;;;;;;5035168;28;20067;-70
2022/04/12 07:19:29;;;;;;;3.80;1.70;;;;;;;;;;5034519;28;20096;-71
2022/04/12 07:21:55;;;;;;;4.25;1.95;;;;;;;;;;5035018;28;20457;-70
2022/04/12 07:24:21;;;;;;;5.47;1.95;;;;;;;;;;5034195;28;20043;-69
2022/04/12 07:26:47;;;;;;;3.78;1.83;;;;;;;;;;5022508;28;20112;-69
2022/04/12 07:29:13;;;;;;;3.30;1.98;;;;;;;;;;5016044;28;20075;-69
2022/04/12 07:31:39;;;;;;;6.38;2.20;;;;;;;;;;5034418;28;20045;-69
2022/04/12 07:34:07;;;;;;;3.00;1.73;;;;;;;;;;5034693;28;20046;-69
2022/04/12 07:36:33;;;;;;;8.32;2.30;;;;;;;;;;5032864;28;20128;-69
2022/04/12 07:38:59;;;;;;;5.13;2.42;;;;;;;;;;5014913;28;20069;-69
2022/04/12 07:41:25;;;;;;;2.72;1.75;;;;;;;;;;5015041;28;20045;-69
2022/04/12 07:43:52;;;;;;;3.88;2.15;;;;;;;;;;5034531;28;20045;-69
2022/04/12 07:46:19;;;;;;;4.45;1.92;;;;;;;;;;5034187;28;20079;-69
2022/04/12 07:48:45;;;;;;;3.13;1.98;;;;;;;;;;5034185;28;20045;-69
2022/04/12 07:51:11;;;;;;;4.20;2.15;;;;;;;;;;5022138;28;20125;-69
2022/04/12 07:53:38;;;;;;;3.33;1.80;;;;;;;;;;5014668;28;20046;-69
2022/04/12 07:56:04;;;;;;;3.85;1.92;;;;;;;;;;5014283;28;20081;-69
2022/04/12 07:58:30;;;;;;;3.88;2.10;;;;;;;;;;5032674;28;20049;-68
2022/04/12 08:00:56;;;;;;;3.38;2.10;;;;;;;;;;5033928;28;20044;-69
2022/04/12 08:03:22;;;;;;;3.35;1.92;;;;;;;;;;5017109;28;20505;-69
2022/04/12 08:05:48;;;;;;;4.03;2.08;;;;;;;;;;5014531;28;20065;-69
2022/04/12 08:08:14;;;;;;;3.28;2.00;;;;;;;;;;5023024;28;20038;-69
2022/04/12 08:10:40;;;;;;;2.83;1.90;;;;;;;;;;5014664;28;20128;-69
2022/04/12 08:13:06;;;;;;;2.90;2.20;;;;;;;;;;5015257;28;20153;-69
2022/04/12 08:15:32;;;;;;;3.13;2.13;;;;;;;;;;5013907;28;20108;-69
2022/04/12 08:17:58;;;;;;;4.05;2.35;;;;;;;;;;5021062;28;20042;-69
2022/04/12 08:20:24;;;;;;;3.10;2.03;;;;;;;;;;5014356;28;20068;-69
2022/04/12 08:22:52;;;;;;;4.75;1.92;;;;;;;;;;5013644;28;20412;-68
2022/04/12 08:25:18;;;;;;;3.63;2.20;;;;;;;;;;5033402;28;20448;-69
2022/04/12 08:27:44;;;;;;;3.17;2.05;;;;;;;;;;5032937;28;20073;-68
2022/04/12 08:30:11;;;;;;;3.65;2.08;;;;;;;;;;5016379;28;20129;-68
2022/04/12 08:32:37;;;;;;;3.00;2.08;;;;;;;;;;5014011;28;20131;-68
2022/04/12 08:35:04;;;;;;;3.15;1.90;;;;;;;;;;5013817;28;20046;-69
2022/04/12 08:37:30;;;;;;;2.92;2.17;;;;;;;;;;5013755;28;20042;-69
2022/04/12 08:39:56;;;;;;;2.45;1.70;;;;;;;;;;5015258;28;20038;-69
2022/04/12 08:42:22;;;;;;;4.35;1.90;;;;;;;;;;5021763;28;20136;-69
2022/04/12 08:44:48;;;;;;;4.45;2.10;;;;;;;;;;5027553;28;20141;-69
2022/04/12 08:47:15;;;;;;;2.90;1.70;;;;;;;;;;5014008;28;20046;-69
2022/04/12 08:49:42;;;;;;;2.80;1.95;;;;;;;;;;5021949;28;20041;-69
2022/04/12 08:52:11;;;;;;;2.40;1.98;;;;;;;;;;5015446;28;20042;-69
2022/04/12 08:54:38;;;;;;;2.10;1.90;;;;;;;;;;5013543;28;20042;-69
2022/04/12 08:57:04;;;;;;;2.10;1.83;;;;;;;;;;5015432;28;20053;-69
2022/04/12 08:59:30;;;;;;;3.33;2.00;;;;;;;;;;5024254;28;20080;-68
2022/04/12 09:01:58;;;;;;;4.18;2.03;;;;;;;;;;5032797;28;20132;-69
2022/04/12 09:04:28;;;;;;;3.50;1.90;;;;;;;;;;5030730;28;20097;-69
2022/04/12 09:06:55;;;;;;;4.07;2.08;;;;;;;;;;5024254;28;20485;-69
2022/04/12 09:09:22;;;;;;;6.03;2.17;;;;;;;;;;5032283;28;20524;-69
2022/04/12 09:12:02;;;;;;;4.57;2.30;;;;;;;;;;5032271;28;20037;-69
2022/04/12 09:14:39;;;;;;;7.30;3.15;;;;;;;;;;5014658;28;20052;-69
2022/04/12 09:17:06;;;;;;;8.63;2.90;;;;;;;;;;5011733;28;20041;-69
2022/04/12 09:19:39;;;;;;;5.75;2.70;;;;;;;;;;5032655;28;20053;-69
2022/04/12 09:22:13;;;;;;;4.20;2.40;;;;;;;;;;5025527;28;20045;-69
2022/04/12 09:24:51;;;;;;;8.25;2.67;;;;;;;;;;5021498;28;20115;-69
2022/04/12 09:27:18;;;;;;;6.30;2.72;;;;;;;;;;5029228;28;20064;-69
2022/04/12 09:29:48;;;;;;;9.25;2.83;;;;;;;;;;5032750;28;20046;-69
2022/04/12 09:32:15;;;;;;;12.15;2.58;;;;;;;;;;5032584;28;20041;-69
2022/04/12 09:34:44;;;;;;;17.83;3.10;;;;;;;;;;5032698;28;20045;-69
2022/04/12 09:37:30;;;;;;;41.55;5.43;;;;;;;;;;5032589;28;20079;-69
2022/04/12 09:39:59;;;;;;;27.98;5.47;;;;;;;;;;5024788;28;20493;-69
2022/04/12 09:42:44;;;;;;;44.80;6.60;;;;;;;;;;5032346;28;20442;-69
2022/04/12 09:45:12;;;;;;;47.10;7.30;;;;;;;;;;5022422;28;20064;-69
2022/04/12 09:47:39;;;;;;;50.53;8.27;;;;;;;;;;5036556;28;20053;-69
2022/04/12 09:50:05;;;;;;;86.25;11.25;;;;;;;;;;5035854;28;20464;-69
2022/04/12 09:52:32;;;;;;;64.35;9.27;;;;;;;;;;5023258;28;20125;-70
2022/04/12 09:54:58;;;;;;;67.60;8.82;;;;;;;;;;5036636;28;20068;-70
2022/04/12 09:57:25;;;;;;;56.60;7.22;;;;;;;;;;5018756;28;20057;-74
2022/04/12 09:59:55;;;;;;;48.97;7.45;;;;;;;;;;5018310;28;20049;-72
2022/04/12 10:02:23;;;;;;;53.75;7.40;;;;;;;;;;5036006;28;20041;-72
2022/04/12 10:04:49;;;;;;;39.63;6.90;;;;;;;;;;5036410;28;20073;-71
2022/04/12 10:07:18;;;;;;;37.40;6.97;;;;;;;;;;5036376;28;20091;-72
2022/04/12 10:09:44;;;;;;;30.70;5.75;;;;;;;;;;5035696;28;20496;-73
2022/04/12 10:12:10;;;;;;;27.17;5.78;;;;;;;;;;5035936;28;20042;-71
2022/04/12 10:14:37;;;;;;;34.92;5.85;;;;;;;;;;5036207;28;20049;-73
2022/04/12 10:17:04;;;;;;;33.45;5.57;;;;;;;;;;5036286;28;20120;-70
2022/04/12 10:19:31;;;;;;;31.13;5.60;;;;;;;;;;5035897;28;20120;-69
2022/04/12 10:21:57;;;;;;;43.13;6.20;;;;;;;;;;5032559;28;20511;-70
2022/04/12 10:24:24;;;;;;;29.48;5.53;;;;;;;;;;5022413;28;20050;-70
2022/04/12 10:26:51;;;;;;;28.13;5.80;;;;;;;;;;5015949;28;20104;-70
2022/04/12 10:29:17;;;;;;;34.85;5.88;;;;;;;;;;5021370;28;20132;-70
2022/04/12 10:32:12;;;;;;;31.33;6.03;;;;;;;;;;5035264;28;20045;-70
2022/04/12 10:34:58;;;;;;;19.60;4.95;;;;;;;;;;5022581;28;20144;-71
2022/04/12 10:37:24;;;;;;;30.20;4.78;;;;;;;;;;5035526;28;20045;-70
2022/04/12 10:39:56;;;;;;;24.75;4.82;;;;;;;;;;5034274;28;20084;-70
2022/04/12 10:42:26;;;;;;;23.23;4.95;;;;;;;;;;5035242;28;20404;-70
2022/04/12 10:44:53;;;;;;;18.35;4.35;;;;;;;;;;5034925;28;20049;-70
2022/04/12 10:47:27;;;;;;;22.48;4.35;;;;;;;;;;5037295;28;20072;-70
2022/04/12 10:49:54;;;;;;;18.38;4.40;;;;;;;;;;5038333;28;20045;-70
2022/04/12 10:52:20;;;;;;;19.95;5.53;;;;;;;;;;5035210;28;20551;-70
2022/04/12 10:54:48;;;;;;;20.50;4.22;;;;;;;;;;5034315;28;20041;-70
2022/04/12 10:57:22;;;;;;;24.00;5.50;;;;;;;;;;5034948;28;20066;-71
2022/04/12 10:59:52;;;;;;;20.65;4.57;;;;;;;;;;5034493;28;20103;-70
2022/04/12 11:02:18;;;;;;;11.95;4.45;;;;;;;;;;5022099;28;20119;-70
2022/04/12 11:04:44;;;;;;;14.48;5.43;;;;;;;;;;5022395;28;20041;-70
2022/04/12 11:07:10;;;;;;;14.50;4.72;;;;;;;;;;5035113;28;20412;-70
2022/04/12 11:09:36;;;;;;;11.95;4.65;;;;;;;;;;5035115;28;20049;-70
2022/04/12 11:12:03;;;;;;;15.30;5.93;;;;;;;;;;5035153;28;20513;-70
2022/04/12 11:14:37;;;;;;;16.85;6.05;;;;;;;;;;5034879;28;20102;-69
2022/04/12 11:17:04;;;;;;;8.73;4.60;;;;;;;;;;5014147;28;20064;-69
2022/04/12 11:19:41;;;;;;;15.80;4.57;;;;;;;;;;5015417;28;20038;-69
2022/04/12 11:22:10;;;;;;;7.38;3.65;;;;;;;;;;5032474;28;20392;-69
2022/04/12 11:24:36;;;;;;;10.35;3.78;;;;;;;;;;5034782;28;20048;-70
2022/04/12 11:27:29;;;;;;;8.27;3.78;;;;;;;;;;5033678;28;20046;-70
2022/04/12 11:29:57;;;;;;;8.50;3.42;;;;;;;;;;5026294;28;20053;-69
2022/04/12 11:32:25;;;;;;;9.30;3.45;;;;;;;;;;5014961;28;20057;-69
2022/04/12 11:34:51;;;;;;;9.05;3.40;;;;;;;;;;5015101;28;20133;-69
2022/04/12 11:37:17;;;;;;;11.48;3.78;;;;;;;;;;5032723;28;20072;-69
2022/04/12 11:39:44;;;;;;;5.50;3.00;;;;;;;;;;5034306;28;20103;-69
2022/04/12 11:42:14;;;;;;;7.10;3.22;;;;;;;;;;5020288;28;20052;-70
2022/04/12 11:44:41;;;;;;;7.45;3.10;;;;;;;;;;5021189;28;20451;-69
2022/04/12 11:47:11;;;;;;;7.30;3.38;;;;;;;;;;5034649;28;20099;-69
2022/04/12 11:49:41;;;;;;;5.90;2.80;;;;;;;;;;5034043;28;20091;-69
2022/04/12 11:52:08;;;;;;;5.50;2.60;;;;;;;;;;5029887;28;20038;-69
2022/04/12 11:54:38;;;;;;;7.03;2.88;;;;;;;;;;5014459;28;20056;-69
2022/04/12 11:57:08;;;;;;;6.78;2.95;;;;;;;;;;5031489;28;20060;-69
2022/04/12 11:59:38;;;;;;;6.20;3.00;;;;;;;;;;5033885;28;20053;-69
2022/04/12 12:02:05;;;;;;;4.55;2.50;;;;;;;;;;5034041;28;20045;-69
2022/04/12 12:04:35;;;;;;;6.85;2.67;;;;;;;;;;5030595;28;20493;-69
2022/04/12 12:07:03;;;;;;;6.95;2.60;;;;;;;;;;5029085;28;20080;-69
2022/04/12 12:09:29;;;;;;;5.95;2.78;;;;;;;;;;5014368;28;20050;-69
2022/04/12 12:12:02;;;;;;;5.88;2.47;;;;;;;;;;5033034;28;20524;-69
2022/04/12 12:14:29;;;;;;;5.13;2.55;;;;;;;;;;5033879;28;20068;-69
2022/04/12 12:17:01;;;;;;;6.95;2.55;;;;;;;;;;5033474;28;20045;-69
2022/04/12 12:19:28;;;;;;;6.20;3.03;;;;;;;;;;5033610;28;20432;-69
2022/04/12 12:21:54;;;;;;;6.20;2.90;;;;;;;;;;5033693;28;20088;-69
2022/04/12 12:24:20;;;;;;;5.70;2.90;;;;;;;;;;5034080;28;20045;-69
2022/04/12 12:26:46;;;;;;;6.05;2.45;;;;;;;;;;5028343;28;20044;-69
2022/04/12 12:29:12;;;;;;;5.68;2.40;;;;;;;;;;5031860;28;20455;-69
2022/04/12 12:31:42;;;;;;;5.88;2.50;;;;;;;;;;5033125;28;20037;-69
2022/04/12 12:34:08;;;;;;;5.63;2.50;;;;;;;;;;5033317;28;20049;-69
2022/04/12 12:36:34;;;;;;;4.30;2.30;;;;;;;;;;5033370;28;20091;-69
2022/04/12 12:39:07;;;;;;;4.32;2.47;;;;;;;;;;5033487;28;20037;-69
2022/04/12 12:41:33;;;;;;;4.88;2.50;;;;;;;;;;5033420;28;20488;-69
2022/04/12 12:44:03;;;;;;;7.35;2.63;;;;;;;;;;5032003;28;20049;-70
2022/04/12 12:46:32;;;;;;;6.82;2.70;;;;;;;;;;5030011;28;20500;-70
2022/04/12 12:49:07;;;;;;;4.28;2.75;;;;;;;;;;5030130;28;20103;-70
2022/04/12 12:51:33;;;;;;;3.58;2.42;;;;;;;;;;5032240;28;20045;-70
2022/04/12 12:54:00;;;;;;;6.28;2.78;;;;;;;;;;5033067;28;20488;-70
2022/04/12 12:56:31;;;;;;;5.57;2.50;;;;;;;;;;5015004;28;20053;-70
2022/04/12 12:59:16;;;;;;;3.50;2.30;;;;;;;;;;5033067;28;20515;-70
2022/04/12 13:01:49;;;;;;;4.07;2.42;;;;;;;;;;5013628;28;20045;-70
2022/04/12 13:04:22;;;;;;;3.97;2.20;;;;;;;;;;5013288;28;20408;-70
2022/04/12 13:06:59;;;;;;;5.30;2.40;;;;;;;;;;5013348;28;20056;-70
2022/04/12 13:09:26;;;;;;;4.57;2.30;;;;;;;;;;5013205;28;20405;-71
2022/04/12 13:11:52;;;;;;;4.90;2.33;;;;;;;;;;5023545;28;20493;-70
2022/04/12 13:14:18;;;;;;;6.35;3.33;;;;;;;;;;5015768;28;20046;-70
2022/04/12 13:16:44;;;;;;;4.90;2.22;;;;;;;;;;5015550;28;20046;-70
2022/04/12 13:19:10;;;;;;;3.42;2.47;;;;;;;;;;4995083;28;20068;-70
2022/04/12 13:21:36;;;;;;;5.43;2.65;;;;;;;;;;5024682;28;20045;-70
2022/04/12 13:24:02;;;;;;;6.90;2.67;;;;;;;;;;5032939;28;20041;-70
2022/04/12 13:26:28;;;;;;;4.97;2.50;;;;;;;;;;5028551;28;20033;-70
2022/04/12 13:28:54;;;;;;;4.70;2.40;;;;;;;;;;5032295;28;20041;-70
2022/04/12 13:31:20;;;;;;;4.32;2.40;;;;;;;;;;5026297;28;20073;-70
2022/04/12 13:33:46;;;;;;;4.35;2.50;;;;;;;;;;5030320;28;20041;-70
2022/04/12 13:36:12;;;;;;;3.80;2.38;;;;;;;;;;5015292;28;20406;-70
2022/04/12 13:38:38;;;;;;;5.28;2.30;;;;;;;;;;5029745;28;20044;-70
2022/04/12 13:41:04;;;;;;;3.28;2.30;;;;;;;;;;5052596;28;20041;-71
2022/04/12 13:43:30;;;;;;;6.15;2.47;;;;;;;;;;5031684;28;20051;-70
2022/04/12 13:45:56;;;;;;;4.13;2.50;;;;;;;;;;5012865;28;20061;-71
2022/04/12 13:48:22;;;;;;;3.20;2.30;;;;;;;;;;5012818;28;20100;-71
2022/04/12 13:50:48;;;;;;;4.03;2.38;;;;;;;;;;5012985;28;20100;-71
2022/04/12 13:53:15;;;;;;;4.10;2.63;;;;;;;;;;5024639;28;20070;-71
2022/04/12 13:55:41;;;;;;;4.25;2.58;;;;;;;;;;5032518;28;20049;-71
2022/04/12 13:58:07;;;;;;;4.43;2.40;;;;;;;;;;5022872;28;20050;-70
2022/04/12 14:00:33;;;;;;;4.72;2.63;;;;;;;;;;5032295;28;20052;-70
2022/04/12 14:02:59;;;;;;;3.92;2.47;;;;;;;;;;5032472;28;20504;-71
2022/04/12 14:05:25;;;;;;;7.40;2.80;;;;;;;;;;5031842;28;20037;-70
2022/04/12 14:07:52;;;;;;;5.70;2.60;;;;;;;;;;5032523;28;20124;-70
2022/04/12 14:10:18;;;;;;;5.85;3.00;;;;;;;;;;5032291;28;20061;-70
2022/04/12 14:12:44;;;;;;;5.05;2.60;;;;;;;;;;5030989;28;20049;-70
2022/04/12 14:15:13;;;;;;;3.83;2.42;;;;;;;;;;5032280;28;20046;-70
2022/04/12 14:17:39;;;;;;;5.28;2.80;;;;;;;;;;5032407;28;20055;-71
2022/04/12 14:20:05;;;;;;;5.88;2.90;;;;;;;;;;5030264;28;20508;-71
2022/04/12 14:22:31;;;;;;;5.25;2.80;;;;;;;;;;5032464;28;20052;-71
2022/04/12 14:24:57;;;;;;;4.95;3.20;;;;;;;;;;5031277;28;20038;-70
2022/04/12 14:27:24;;;;;;;6.07;3.13;;;;;;;;;;5015583;28;20487;-71
2022/04/12 14:29:50;;;;;;;6.00;2.80;;;;;;;;;;5015079;28;20078;-70
2022/04/12 14:32:18;;;;;;;9.63;3.30;;;;;;;;;;5016036;28;20089;-71
2022/04/12 14:34:44;;;;;;;5.70;2.75;;;;;;;;;;5000185;28;20058;-71
2022/04/12 14:37:10;;;;;;;4.60;2.90;;;;;;;;;;5035985;28;20443;-71
2022/04/12 14:39:36;;;;;;;3.78;2.60;;;;;;;;;;5035753;28;20515;-71
2022/04/12 14:42:02;;;;;;;4.65;2.60;;;;;;;;;;5035606;28;20117;-71
2022/04/12 14:44:28;;;;;;;4.80;3.28;;;;;;;;;;5024035;28;20042;-71